createdAt,value
2023-03-06T00:00:53.285Z,12.13
2023-03-06T00:03:21.566Z,11.40
2023-03-06T00:05:49.397Z,11.73
2023-03-06T00:08:17.442Z,11.30
2023-03-06T00:10:45.341Z,12.23
2023-03-06T00:13:14.603Z,12.25
2023-03-06T00:15:42.566Z,10.88
2023-03-06T00:18:10.630Z,11.10
2023-03-06T00:20:40.142Z,11.25
2023-03-06T00:23:08.253Z,10.70
2023-03-06T00:25:39.188Z,11.07
2023-03-06T00:28:07.096Z,11.23
2023-03-06T00:30:36.835Z,10.57
2023-03-06T00:33:04.877Z,10.88
2023-03-06T00:35:33.272Z,11.45
2023-03-06T00:38:01.353Z,11.35
2023-03-06T00:40:29.633Z,10.40
2023-03-06T00:42:57.780Z,10.98
2023-03-06T00:45:26.187Z,10.38
2023-03-06T00:47:53.838Z,11.05
2023-03-06T00:50:22.222Z,10.52
2023-03-06T00:52:49.993Z,11.32
2023-03-06T00:55:18.785Z,10.55
2023-03-06T00:57:47.076Z,11.48
2023-03-06T01:00:15.841Z,11.65
2023-03-06T01:02:44.296Z,10.05
2023-03-06T01:05:14.414Z,11.48
2023-03-06T01:07:42.358Z,10.10
2023-03-06T01:10:10.577Z,12.18
2023-03-06T01:12:38.729Z,11.60
2023-03-06T01:15:06.881Z,11.65
2023-03-06T01:17:35.632Z,11.70
2023-03-06T01:20:05.001Z,12.85
2023-03-06T01:22:36.164Z,10.50
2023-03-06T01:25:04.184Z,12.00
2023-03-06T01:27:32.898Z,11.35
2023-03-06T01:30:00.655Z,10.48
2023-03-06T01:32:28.643Z,11.85
2023-03-06T01:34:56.329Z,11.30
2023-03-06T01:37:24.334Z,10.85
2023-03-06T01:39:51.933Z,11.45
2023-03-06T01:42:19.912Z,11.75
2023-03-06T01:45:00.758Z,10.93
2023-03-06T01:47:29.244Z,11.57
2023-03-06T01:49:58.182Z,11.73
2023-03-06T01:52:30.332Z,11.85
2023-03-06T01:55:01.809Z,11.10
2023-03-06T01:57:33.121Z,11.95
2023-03-06T02:02:28.428Z,11.30
2023-03-06T02:04:56.360Z,10.60
2023-03-06T02:07:25.923Z,11.25
2023-03-06T02:09:53.578Z,11.52
2023-03-06T02:12:24.540Z,11.48
2023-03-06T02:14:52.185Z,13.50
2023-03-06T02:17:23.338Z,11.88
2023-03-06T02:19:51.002Z,11.80
2023-03-06T02:22:20.206Z,12.63
2023-03-06T02:24:50.947Z,14.57
2023-03-06T02:27:19.461Z,13.23
2023-03-06T02:29:47.298Z,11.70
2023-03-06T02:32:15.611Z,11.93
2023-03-06T02:34:43.265Z,11.80
2023-03-06T02:37:11.791Z,11.77
2023-03-06T02:39:42.342Z,11.30
2023-03-06T02:42:10.432Z,12.05
2023-03-06T02:44:38.384Z,11.07
2023-03-06T02:47:07.927Z,11.23
2023-03-06T02:49:35.672Z,12.05
2023-03-06T02:52:03.547Z,10.68
2023-03-06T02:54:32.507Z,11.32
2023-03-06T02:57:00.134Z,11.20
2023-03-06T02:59:27.794Z,11.30
2023-03-06T03:01:56.170Z,11.13
2023-03-06T03:04:25.306Z,11.07
2023-03-06T03:06:53.860Z,11.50
2023-03-06T03:09:21.669Z,10.52
2023-03-06T03:11:49.258Z,12.60
2023-03-06T03:14:17.393Z,11.10
2023-03-06T03:16:47.699Z,13.07
2023-03-06T03:19:15.444Z,11.52
2023-03-06T03:21:43.966Z,11.70
2023-03-06T03:24:11.799Z,12.27
2023-03-06T03:26:39.799Z,11.05
2023-03-06T03:29:15.304Z,12.63
2023-03-06T03:31:43.114Z,12.00
2023-03-06T03:34:10.970Z,12.05
2023-03-06T03:36:40.978Z,12.50
2023-03-06T03:39:10.402Z,12.18
2023-03-06T03:41:38.865Z,11.48
2023-03-06T03:44:09.260Z,13.15
2023-03-06T03:46:37.305Z,12.15
2023-03-06T03:49:09.229Z,12.45
2023-03-06T03:51:37.981Z,13.57
2023-03-06T03:54:06.855Z,12.27
2023-03-06T03:56:40.861Z,12.32
2023-03-06T03:59:15.235Z,11.85
2023-03-06T04:01:52.711Z,13.70
2023-03-06T04:04:20.476Z,13.85
2023-03-06T04:06:48.749Z,11.77
2023-03-06T04:09:18.598Z,12.93
2023-03-06T04:11:46.759Z,12.85
2023-03-06T04:14:14.681Z,11.85
2023-03-06T04:16:43.212Z,13.23
2023-03-06T04:19:11.964Z,12.07
2023-03-06T04:21:40.654Z,12.75
2023-03-06T04:24:09.911Z,12.35
2023-03-06T04:26:37.850Z,12.32
2023-03-06T04:29:06.980Z,12.00
2023-03-06T04:31:34.849Z,11.88
2023-03-06T04:34:03.391Z,12.35
2023-03-06T04:36:33.243Z,13.13
2023-03-06T04:39:11.421Z,11.93
2023-03-06T04:41:39.634Z,12.18
2023-03-06T04:44:07.719Z,12.80
2023-03-06T04:46:35.691Z,12.10
2023-03-06T04:49:04.185Z,12.55
2023-03-06T04:51:31.854Z,12.73
2023-03-06T04:53:59.939Z,12.25
2023-03-06T04:56:27.476Z,11.32
2023-03-06T04:58:55.415Z,10.90
2023-03-06T05:01:23.270Z,11.60
2023-03-06T05:03:51.196Z,11.15
2023-03-06T05:06:18.763Z,12.07
2023-03-06T05:08:46.827Z,10.60
2023-03-06T05:11:14.542Z,11.63
2023-03-06T05:13:43.207Z,11.30
2023-03-06T05:16:10.825Z,10.35
2023-03-06T05:18:46.802Z,12.35
2023-03-06T05:21:16.106Z,10.93
2023-03-06T05:23:43.716Z,11.32
2023-03-06T05:26:14.077Z,11.15
2023-03-06T05:28:42.161Z,9.03
2023-03-06T05:31:10.814Z,11.93
2023-03-06T05:33:38.806Z,11.32
2023-03-06T05:36:08.250Z,11.90
2023-03-06T05:38:38.039Z,11.35
2023-03-06T05:41:05.919Z,10.70
2023-03-06T05:43:33.558Z,11.60
2023-03-06T05:46:02.565Z,13.68
2023-03-06T05:48:30.493Z,11.88
2023-03-06T05:50:58.878Z,12.40
2023-03-06T05:53:28.799Z,11.65
2023-03-06T05:55:59.575Z,13.02
2023-03-06T05:58:28.172Z,13.10
2023-03-06T06:00:55.849Z,11.85
2023-03-06T06:03:25.116Z,12.65
2023-03-06T06:08:35.138Z,11.80
2023-03-06T06:11:04.782Z,12.52
2023-03-06T06:13:32.799Z,11.77
2023-03-06T06:16:01.016Z,12.15
2023-03-06T06:18:28.799Z,11.57
2023-03-06T06:20:56.821Z,11.95
2023-03-06T06:23:25.090Z,12.43
2023-03-06T06:25:52.956Z,13.52
2023-03-06T06:28:20.858Z,12.40
2023-03-06T06:30:55.770Z,11.32
2023-03-06T06:33:24.617Z,12.35
2023-03-06T06:35:52.709Z,12.55
2023-03-06T06:38:24.129Z,11.88
2023-03-06T06:41:19.292Z,13.13
2023-03-06T06:43:41.453Z,15.13
2023-03-06T06:46:44.549Z,13.32
2023-03-06T06:49:00.234Z,12.50
2023-03-06T06:51:29.464Z,13.10
2023-03-06T06:53:57.547Z,12.35
2023-03-06T06:56:28.939Z,12.88
2023-03-06T06:59:15.276Z,13.57
2023-03-06T07:01:45.606Z,13.48
2023-03-06T07:04:15.245Z,13.65
2023-03-06T07:06:43.366Z,13.32
2023-03-06T07:09:12.828Z,14.05
2023-03-06T07:11:40.629Z,13.98
2023-03-06T07:14:08.715Z,14.98
2023-03-06T07:16:36.465Z,14.60
2023-03-06T07:19:05.337Z,13.48
2023-03-06T07:21:33.162Z,13.57
2023-03-06T07:24:01.561Z,13.77
2023-03-06T07:26:32.097Z,14.32
2023-03-06T07:29:01.298Z,13.43
2023-03-06T07:31:29.209Z,15.27
2023-03-06T07:33:57.520Z,14.27
2023-03-06T07:36:25.247Z,15.43
2023-03-06T07:38:53.087Z,14.95
2023-03-06T07:41:22.638Z,15.23
2023-03-06T07:43:54.039Z,14.77
2023-03-06T07:46:21.690Z,15.35
2023-03-06T07:48:49.646Z,16.50
2023-03-06T07:51:21.576Z,15.05
2023-03-06T07:53:50.038Z,14.10
2023-03-06T07:56:18.137Z,15.60
2023-03-06T07:58:47.540Z,14.13
2023-03-06T08:01:17.267Z,14.35
2023-03-06T08:03:47.051Z,15.50
2023-03-06T08:06:16.559Z,15.65
2023-03-06T08:08:47.281Z,13.95
2023-03-06T08:11:16.029Z,13.95
2023-03-06T08:13:44.189Z,14.10
2023-03-06T08:16:12.634Z,15.50
2023-03-06T08:18:40.331Z,13.13
2023-03-06T08:21:12.679Z,12.82
2023-03-06T08:23:40.750Z,13.60
2023-03-06T08:26:11.527Z,12.43
2023-03-06T08:28:42.717Z,13.10
2023-03-06T08:33:42.454Z,13.70
2023-03-06T08:36:10.477Z,12.82
2023-03-06T08:38:38.697Z,12.25
2023-03-06T08:41:06.411Z,11.82
2023-03-06T08:43:36.175Z,12.00
2023-03-06T08:46:04.110Z,11.40
2023-03-06T08:48:31.942Z,12.43
2023-03-06T08:50:59.653Z,11.55
2023-03-06T08:53:41.706Z,11.77
2023-03-06T08:56:36.574Z,11.02
2023-03-06T08:59:05.768Z,11.38
2023-03-06T09:01:35.187Z,11.57
2023-03-06T09:04:04.866Z,11.65
2023-03-06T09:06:35.191Z,10.52
2023-03-06T09:09:02.964Z,10.77
2023-03-06T09:11:30.770Z,10.93
2023-03-06T09:13:58.926Z,10.60
2023-03-06T09:16:26.662Z,11.57
2023-03-06T09:18:54.360Z,10.88
2023-03-06T09:21:22.406Z,11.70
2023-03-06T09:23:50.494Z,11.43
2023-03-06T09:26:18.649Z,10.65
2023-03-06T09:28:47.052Z,12.07
2023-03-06T09:31:16.386Z,10.70
2023-03-06T09:33:44.723Z,8.13
2023-03-06T09:36:17.482Z,10.70
2023-03-06T09:38:47.975Z,10.02
2023-03-06T09:41:36.153Z,10.27
2023-03-06T09:44:09.251Z,8.95
2023-03-06T09:46:37.436Z,9.93
2023-03-06T09:49:12.039Z,10.45
2023-03-06T09:51:42.796Z,10.07
2023-03-06T09:54:14.646Z,8.50
2023-03-06T09:56:48.270Z,9.93
2023-03-06T09:59:23.800Z,10.07
2023-03-06T10:02:11.876Z,9.55
2023-03-06T10:04:42.268Z,11.35
2023-03-06T10:07:15.508Z,8.82
2023-03-06T10:09:47.220Z,9.73
2023-03-06T10:12:20.322Z,9.70
2023-03-06T10:14:54.073Z,9.20
2023-03-06T10:17:23.968Z,8.35
2023-03-06T10:19:51.955Z,7.80
2023-03-06T10:22:30.235Z,9.35
2023-03-06T10:25:05.784Z,9.45
2023-03-06T10:27:40.814Z,7.82
2023-03-06T10:30:21.087Z,7.88
2023-03-06T10:32:49.580Z,7.90
2023-03-06T10:35:19.678Z,9.40
2023-03-06T10:37:47.839Z,7.57
2023-03-06T10:40:23.574Z,8.65
2023-03-06T10:42:58.733Z,8.27
2023-03-06T10:45:47.299Z,7.30
2023-03-06T10:48:21.844Z,7.43
2023-03-06T10:50:49.524Z,7.60
2023-03-06T10:53:29.158Z,8.00
2023-03-06T10:56:01.104Z,7.88
2023-03-06T10:58:30.896Z,8.13
2023-03-06T11:01:16.504Z,7.35
2023-03-06T11:03:44.765Z,8.20
2023-03-06T11:06:17.080Z,8.07
2023-03-06T11:08:46.535Z,7.85
2023-03-06T11:11:20.300Z,7.57
2023-03-06T11:13:59.741Z,7.80
2023-03-06T11:16:30.669Z,9.68
2023-03-06T11:19:00.590Z,7.28
2023-03-06T11:21:35.893Z,8.27
2023-03-06T11:24:09.323Z,8.60
2023-03-06T11:26:58.546Z,9.10
2023-03-06T11:29:35.289Z,8.02
2023-03-06T11:32:08.297Z,10.05
2023-03-06T11:34:45.384Z,8.35
2023-03-06T11:37:21.406Z,8.95
2023-03-06T11:39:53.671Z,8.18
2023-03-06T11:42:33.485Z,8.63
2023-03-06T11:45:20.595Z,8.40
2023-03-06T11:48:07.611Z,8.32
2023-03-06T11:51:06.542Z,9.50
2023-03-06T11:53:39.280Z,9.95
2023-03-06T11:56:19.633Z,8.93
2023-03-06T11:58:59.472Z,7.50
2023-03-06T12:01:36.339Z,7.55
2023-03-06T12:04:10.375Z,7.80
2023-03-06T12:06:53.368Z,9.25
2023-03-06T12:09:21.293Z,8.77
2023-03-06T12:11:52.273Z,9.15
2023-03-06T12:14:34.011Z,8.45
2023-03-06T12:17:20.636Z,9.00
2023-03-06T12:19:56.853Z,8.30
2023-03-06T12:22:31.350Z,8.90
2023-03-06T12:25:10.403Z,8.25
2023-03-06T12:27:42.987Z,8.60
2023-03-06T12:30:26.074Z,8.65
2023-03-06T12:33:03.678Z,8.52
2023-03-06T12:35:53.383Z,7.28
2023-03-06T12:38:40.212Z,7.53
2023-03-06T12:41:17.171Z,7.28
2023-03-06T12:43:45.359Z,8.07
2023-03-06T12:46:17.572Z,8.15
2023-03-06T12:48:48.934Z,7.28
2023-03-06T12:51:20.096Z,7.63
2023-03-06T12:56:18.864Z,6.32
2023-03-06T12:58:51.377Z,7.63
2023-03-06T13:01:37.679Z,7.60
2023-03-06T13:04:08.589Z,7.50
2023-03-06T13:06:57.815Z,7.68
2023-03-06T13:09:34.692Z,7.00
2023-03-06T13:12:11.739Z,7.28
2023-03-06T13:14:48.628Z,7.20
2023-03-06T13:17:32.562Z,6.65
2023-03-06T13:20:15.728Z,7.10
2023-03-06T13:22:45.379Z,6.78
2023-03-06T13:25:19.835Z,7.68
2023-03-06T13:28:00.344Z,7.70
2023-03-06T13:30:34.191Z,7.13
2023-03-06T13:33:01.876Z,8.38
2023-03-06T13:35:32.876Z,7.53
2023-03-06T13:38:01.111Z,6.82
2023-03-06T13:40:33.845Z,7.03
2023-03-06T13:43:07.672Z,7.75
2023-03-06T13:45:35.510Z,8.00
2023-03-06T13:48:29.979Z,8.13
2023-03-06T13:50:51.979Z,7.72
2023-03-06T13:53:25.965Z,8.00
2023-03-06T13:56:02.538Z,7.95
2023-03-06T13:58:59.039Z,8.32
2023-03-06T14:01:37.310Z,7.78
2023-03-06T14:04:05.094Z,8.05
2023-03-06T14:06:35.873Z,8.43
2023-03-06T14:09:08.031Z,6.82
2023-03-06T14:11:36.580Z,8.10
2023-03-06T14:14:04.555Z,7.82
2023-03-06T14:16:49.006Z,8.63
2023-03-06T14:19:19.258Z,7.25
2023-03-06T14:21:49.794Z,8.07
2023-03-06T14:24:18.777Z,8.00
2023-03-06T14:26:49.394Z,8.30
2023-03-06T14:29:21.712Z,8.88
2023-03-06T14:31:50.490Z,7.75
2023-03-06T14:34:31.716Z,9.15
2023-03-06T14:39:41.189Z,7.85
2023-03-06T14:42:10.352Z,7.40
2023-03-06T14:44:37.999Z,7.95
2023-03-06T14:47:22.252Z,9.88
2023-03-06T14:50:12.960Z,10.85
2023-03-06T14:52:40.921Z,8.93
2023-03-06T14:55:11.706Z,9.13
2023-03-06T14:57:42.536Z,7.72
2023-03-06T15:00:17.680Z,8.63
2023-03-06T15:02:46.477Z,7.70
2023-03-06T15:05:20.534Z,8.07
2023-03-06T15:07:49.320Z,7.05
2023-03-06T15:10:21.384Z,8.07
2023-03-06T15:12:49.183Z,7.72
2023-03-06T15:15:18.060Z,8.13
2023-03-06T15:17:47.063Z,8.07
2023-03-06T15:20:34.910Z,8.40
2023-03-06T15:23:02.985Z,7.40
2023-03-06T15:25:32.167Z,7.70
2023-03-06T15:28:18.938Z,7.90
2023-03-06T15:31:01.531Z,8.07
2023-03-06T15:33:29.318Z,8.02
2023-03-06T15:35:57.525Z,7.18
2023-03-06T15:38:27.006Z,8.60
2023-03-06T15:40:59.054Z,8.77
2023-03-06T15:43:27.920Z,9.25
2023-03-06T15:45:59.170Z,8.18
2023-03-06T15:48:27.593Z,7.25
2023-03-06T15:50:55.432Z,8.82
2023-03-06T15:53:23.596Z,7.93
2023-03-06T15:55:52.695Z,6.63
2023-03-06T15:58:24.062Z,7.80
2023-03-06T16:00:52.349Z,7.50
2023-03-06T16:03:20.794Z,7.88
2023-03-06T16:05:48.649Z,8.07
2023-03-06T16:08:16.450Z,7.72
2023-03-06T16:10:44.952Z,9.50
2023-03-06T16:13:27.018Z,8.15
2023-03-06T16:15:55.210Z,8.20
2023-03-06T16:18:23.656Z,7.88
2023-03-06T16:20:51.423Z,8.05
2023-03-06T16:23:21.820Z,8.27
2023-03-06T16:25:50.292Z,8.65
2023-03-06T16:28:18.415Z,8.73
2023-03-06T16:30:46.140Z,8.48
2023-03-06T16:33:14.431Z,8.70
2023-03-06T16:35:44.899Z,8.15
2023-03-06T16:38:12.679Z,8.48
2023-03-06T16:40:41.614Z,8.35
2023-03-06T16:45:52.641Z,9.23
2023-03-06T16:48:20.631Z,8.63
2023-03-06T16:50:48.747Z,8.40
2023-03-06T16:53:16.938Z,9.05
2023-03-06T16:55:45.117Z,8.77
2023-03-06T16:58:14.365Z,8.45
2023-03-06T17:00:42.476Z,9.50
2023-03-06T17:03:10.735Z,9.63
2023-03-06T17:05:39.134Z,9.65
2023-03-06T17:08:07.192Z,8.77
2023-03-06T17:10:35.138Z,10.23
2023-03-06T17:13:02.866Z,9.55
2023-03-06T17:15:33.438Z,9.57
2023-03-06T17:18:02.791Z,9.60
2023-03-06T17:20:32.416Z,8.75
2023-03-06T17:23:00.158Z,9.77
2023-03-06T17:25:27.900Z,9.55
2023-03-06T17:27:55.727Z,9.70
2023-03-06T17:30:23.329Z,10.13
2023-03-06T17:32:51.037Z,10.70
2023-03-06T17:35:18.844Z,10.73
2023-03-06T17:37:46.601Z,9.55
2023-03-06T17:40:15.729Z,9.13
2023-03-06T17:42:43.616Z,9.77
2023-03-06T17:45:11.954Z,10.48
2023-03-06T17:47:39.875Z,10.18
2023-03-06T17:50:09.730Z,10.77
2023-03-06T17:52:38.953Z,10.52
2023-03-06T17:55:07.848Z,10.27
2023-03-06T17:57:35.549Z,10.85
2023-03-06T18:00:03.612Z,11.05
2023-03-06T18:02:39.942Z,11.57
2023-03-06T18:05:08.042Z,10.82
2023-03-06T18:07:35.780Z,10.55
2023-03-06T18:10:04.368Z,10.95
2023-03-06T18:12:32.401Z,11.15
2023-03-06T18:15:00.529Z,10.13
2023-03-06T18:21:28.378Z,10.23
2023-03-06T18:23:57.793Z,11.65
2023-03-06T18:26:27.468Z,11.13
2023-03-06T18:29:01.409Z,11.02
2023-03-06T18:31:33.737Z,10.45
2023-03-06T18:34:03.889Z,11.15
2023-03-06T18:36:32.881Z,10.93
2023-03-06T18:39:03.724Z,11.18
2023-03-06T18:41:31.814Z,9.88
2023-03-06T18:44:00.576Z,10.68
2023-03-06T18:46:32.243Z,11.88
2023-03-06T18:49:07.491Z,11.02
2023-03-06T18:51:40.913Z,10.20
2023-03-06T18:54:13.999Z,10.27
2023-03-06T18:56:45.210Z,10.60
2023-03-06T18:59:23.085Z,11.43
2023-03-06T19:02:03.608Z,10.98
2023-03-06T19:04:39.133Z,11.67
2023-03-06T19:13:08.945Z,12.23
2023-03-06T19:15:43.659Z,10.10
2023-03-06T19:23:56.932Z,11.02
2023-03-06T19:29:12.180Z,11.45
2023-03-06T19:34:31.976Z,9.40
2023-03-06T19:37:00.604Z,9.75
2023-03-06T19:42:46.689Z,10.65
2023-03-06T19:45:14.544Z,11.65
2023-03-06T19:47:51.944Z,11.82
2023-03-06T19:50:23.594Z,12.02
2023-03-06T19:53:01.282Z,10.82
2023-03-06T19:58:21.582Z,11.90
2023-03-06T20:00:49.322Z,11.55
2023-03-06T20:03:17.254Z,11.15
2023-03-06T20:05:48.421Z,11.82
2023-03-06T20:10:43.794Z,12.13
2023-03-06T20:13:11.917Z,13.85
2023-03-06T20:15:40.507Z,12.52
2023-03-06T20:18:08.826Z,11.05
2023-03-06T20:20:39.274Z,11.68
2023-03-06T20:23:07.099Z,8.25
2023-03-06T20:25:41.000Z,12.40
2023-03-06T20:28:11.859Z,12.18
2023-03-06T20:30:42.298Z,11.27
2023-03-06T20:33:13.245Z,11.23
2023-03-06T20:35:43.663Z,11.85
2023-03-06T20:38:16.177Z,12.10
2023-03-06T20:40:44.138Z,10.80
2023-03-06T20:43:11.718Z,11.77
2023-03-06T20:45:39.608Z,10.68
2023-03-06T20:48:07.443Z,10.30
2023-03-06T20:50:35.299Z,10.93
2023-03-06T20:53:03.071Z,10.35
2023-03-06T20:55:38.016Z,11.63
2023-03-06T20:58:06.123Z,9.77
2023-03-06T21:00:34.369Z,10.68
2023-03-06T21:03:02.618Z,9.55
2023-03-06T21:05:32.579Z,9.55
2023-03-06T21:08:04.579Z,9.93
2023-03-06T21:10:32.875Z,10.93
2023-03-06T21:13:01.084Z,10.48
2023-03-06T21:15:30.356Z,10.02
2023-03-06T21:17:58.966Z,10.80
2023-03-06T21:20:27.758Z,10.38
2023-03-06T21:22:56.774Z,10.43
2023-03-06T21:25:24.697Z,10.75
2023-03-06T21:30:34.986Z,10.88
2023-03-06T21:33:04.319Z,10.20
2023-03-06T21:35:32.036Z,10.35
2023-03-06T21:38:00.040Z,9.90
2023-03-06T21:40:27.825Z,9.93
2023-03-06T21:42:55.558Z,10.05
2023-03-06T21:45:27.610Z,10.75
2023-03-06T21:47:55.849Z,10.25
2023-03-06T21:50:23.854Z,11.07
2023-03-06T21:52:52.292Z,10.38
2023-03-06T21:55:20.117Z,10.13
2023-03-06T21:57:51.736Z,10.20
2023-03-06T22:00:20.792Z,10.73
2023-03-06T22:02:48.820Z,10.93
2023-03-06T22:05:16.729Z,10.30
2023-03-06T22:07:44.428Z,9.30
2023-03-06T22:10:14.122Z,10.65
2023-03-06T22:12:42.152Z,10.80
2023-03-06T22:15:10.204Z,10.88
2023-03-06T22:17:40.577Z,10.57
2023-03-06T22:20:08.682Z,10.57
2023-03-06T22:22:36.494Z,10.43
2023-03-06T22:25:05.261Z,10.82
2023-03-06T22:27:33.107Z,11.25
2023-03-06T22:30:01.075Z,10.50
2023-03-06T22:32:29.450Z,9.95
2023-03-06T22:34:57.398Z,9.98
2023-03-06T22:37:25.277Z,10.68
2023-03-06T22:39:52.883Z,9.95
2023-03-06T22:42:23.721Z,11.80
2023-03-06T22:44:51.386Z,10.25
2023-03-06T22:47:18.992Z,10.88
2023-03-06T22:49:47.038Z,9.40
2023-03-06T22:52:15.339Z,10.70
2023-03-06T22:54:43.091Z,8.80
2023-03-06T22:57:10.739Z,9.15
2023-03-06T22:59:38.340Z,10.80
2023-03-06T23:02:06.170Z,10.60
2023-03-06T23:04:37.407Z,10.43
2023-03-06T23:09:33.398Z,9.60
2023-03-06T23:12:19.556Z,10.05
2023-03-06T23:15:06.137Z,11.48
2023-03-06T23:17:52.285Z,10.35
2023-03-06T23:20:42.486Z,10.15
2023-03-06T23:23:28.981Z,10.23
2023-03-06T23:25:59.924Z,9.63
2023-03-06T23:28:28.024Z,9.82
2023-03-06T23:30:56.032Z,9.95
2023-03-06T23:33:23.938Z,10.40
2023-03-06T23:35:51.551Z,10.32
2023-03-06T23:38:19.464Z,10.93
2023-03-06T23:40:49.860Z,10.88
2023-03-06T23:43:17.534Z,10.48
2023-03-06T23:45:52.862Z,11.07
2023-03-06T23:48:20.688Z,10.10
2023-03-06T23:50:48.843Z,10.45
2023-03-06T23:53:16.963Z,11.10
2023-03-06T23:55:45.463Z,9.90
2023-03-06T23:58:13.367Z,10.13
